Time;durP1;ratioP1;P1;durP2;ratioP2;P2;SDS_P1;SDS_P2;PMS_P1;PMS_P2;Temp;Humidity;BMP_temperature;BMP_pressure;BME280_temperature;BME280_humidity;BME280_pressure;Samples;Min_cycle;Max_cycle;Signal;HPM_P1;HPM_P2
2022/03/15 00:00:27;;;;;;;28.05;11.95;;;;;;;7.55;72.23;102381.72;5092695;28;20032;-67
2022/03/15 00:02:56;;;;;;;22.52;11.93;;;;;;;7.57;72.27;102382.47;5092592;28;20550;-67
2022/03/15 00:05:26;;;;;;;24.17;10.60;;;;;;;7.57;72.30;102376.34;5092575;28;20044;-67
2022/03/15 00:07:53;;;;;;;28.73;12.15;;;;;;;7.47;71.78;102373.41;5092053;28;20040;-67
2022/03/15 00:10:20;;;;;;;26.90;11.57;;;;;;;7.50;71.20;102373.22;5092666;28;20064;-67
2022/03/15 00:12:47;;;;;;;23.35;10.02;;;;;;;7.52;71.56;102373.16;5092667;28;20047;-67
2022/03/15 00:15:15;;;;;;;26.60;11.00;;;;;;;7.53;71.33;102370.41;5076181;28;20051;-67
2022/03/15 00:17:43;;;;;;;24.75;10.00;;;;;;;7.55;71.73;102376.44;5096271;28;20044;-67
2022/03/15 00:20:14;;;;;;;23.77;10.10;;;;;;;7.54;71.48;102381.81;5095135;28;20036;-67
2022/03/15 00:22:42;;;;;;;22.55;10.07;;;;;;;7.53;71.68;102369.53;5096032;28;20044;-67
2022/03/15 00:25:12;;;;;;;27.92;10.68;;;;;;;7.44;71.52;102365.66;5096022;28;20051;-67
2022/03/15 00:27:39;;;;;;;25.38;10.50;;;;;;;7.38;71.43;102369.53;5077952;28;20048;-67
2022/03/15 00:30:06;;;;;;;23.95;10.30;;;;;;;7.41;71.76;102361.44;5096024;28;20044;-67
2022/03/15 00:32:35;;;;;;;24.45;10.60;;;;;;;7.34;72.12;102367.19;5094975;28;20071;-67
2022/03/15 00:35:05;;;;;;;24.70;10.30;;;;;;;7.33;72.24;102369.00;5089276;28;20131;-67
2022/03/15 00:37:33;;;;;;;27.90;10.63;;;;;;;7.32;72.61;102363.81;5094628;28;20044;-67
2022/03/15 00:40:00;;;;;;;26.65;10.82;;;;;;;7.29;72.83;102360.41;5094532;28;20590;-67
2022/03/15 00:42:27;;;;;;;25.40;10.45;;;;;;;7.28;72.16;102361.34;5095938;28;20492;-67
2022/03/15 00:45:04;;;;;;;23.88;10.75;;;;;;;7.28;72.50;102349.94;5077826;28;20043;-67
2022/03/15 00:47:31;;;;;;;24.52;10.00;;;;;;;7.30;72.15;102356.81;5094867;28;20059;-67
2022/03/15 00:49:58;;;;;;;25.52;10.80;;;;;;;7.29;72.30;102354.25;5095445;28;20032;-67
2022/03/15 00:52:25;;;;;;;23.88;10.57;;;;;;;7.23;72.33;102354.63;5095570;28;20040;-67
2022/03/15 00:54:51;;;;;;;22.95;10.40;;;;;;;7.20;72.48;102354.81;5095538;28;20040;-67
2022/03/15 00:57:18;;;;;;;29.10;11.02;;;;;;;7.19;72.61;102364.53;5078025;28;20044;-67
2022/03/15 00:59:45;;;;;;;29.13;10.52;;;;;;;7.17;72.16;102361.13;5095478;28;20037;-67
2022/03/15 01:02:12;;;;;;;25.77;10.68;;;;;;;7.22;72.27;102363.50;5095468;28;20085;-67
2022/03/15 01:04:40;;;;;;;19.65;10.00;;;;;;;7.13;72.46;102366.69;5094151;28;20040;-67
2022/03/15 01:07:07;;;;;;;24.98;10.55;;;;;;;7.20;72.17;102360.09;5095053;28;20049;-67
2022/03/15 01:09:35;;;;;;;26.67;10.85;;;;;;;7.17;72.45;102362.91;5095383;28;20036;-67
2022/03/15 01:12:02;;;;;;;22.92;10.00;;;;;;;7.11;72.26;102366.78;5095448;28;20097;-67
2022/03/15 01:14:28;;;;;;;26.25;10.20;;;;;;;7.18;73.32;102357.53;5077278;28;20450;-67
2022/03/15 01:16:56;;;;;;;27.60;10.32;;;;;;;7.19;72.12;102364.53;5095297;28;20072;-67
2022/03/15 01:19:24;;;;;;;26.85;10.10;;;;;;;7.11;71.90;102359.72;5077518;28;20040;-67
2022/03/15 01:21:52;;;;;;;23.48;9.88;;;;;;;7.20;71.78;102353.03;5076771;28;20047;-67
2022/03/15 01:24:20;;;;;;;34.55;10.98;;;;;;;7.24;71.91;102358.97;5095053;28;20542;-67
2022/03/15 01:26:47;;;;;;;25.85;10.63;;;;;;;7.24;71.25;102356.31;5093626;28;20093;-67
2022/03/15 01:29:13;;;;;;;21.52;10.63;;;;;;;7.17;71.82;102353.22;5090100;28;20048;-67
2022/03/15 01:31:40;;;;;;;19.75;10.43;;;;;;;7.00;72.23;102358.66;5094090;28;20051;-67
2022/03/15 01:34:07;;;;;;;22.45;10.63;;;;;;;7.03;72.37;102351.41;5096482;28;20408;-67
2022/03/15 01:36:34;;;;;;;22.55;10.75;;;;;;;7.03;72.45;102346.13;5095068;28;20044;-67
2022/03/15 01:39:04;;;;;;;22.95;11.35;;;;;;;7.09;72.45;102345.78;5094471;28;20066;-67
2022/03/15 01:41:35;;;;;;;22.20;10.43;;;;;;;7.13;71.55;102343.81;5094762;28;20087;-67
2022/03/15 01:44:03;;;;;;;31.38;11.00;;;;;;;7.13;72.45;102340.28;5093426;28;20504;-67
2022/03/15 01:46:30;;;;;;;25.27;10.63;;;;;;;7.16;71.94;102333.03;5093257;28;20040;-67
2022/03/15 01:48:57;;;;;;;23.75;10.95;;;;;;;7.11;72.32;102332.47;5076598;28;20442;-67
2022/03/15 01:51:24;;;;;;;28.02;11.35;;;;;;;7.14;72.02;102334.09;5093279;28;20043;-67
2022/03/15 01:53:51;;;;;;;25.63;11.10;;;;;;;7.16;71.95;102334.84;5094112;28;20054;-67
2022/03/15 01:56:17;;;;;;;24.92;10.40;;;;;;;7.17;71.74;102336.50;5050627;28;20047;-67
2022/03/15 01:58:44;;;;;;;21.02;10.32;;;;;;;7.18;71.76;102335.59;5094462;28;20044;-67
2022/03/15 02:01:11;;;;;;;31.45;11.23;;;;;;;7.22;72.02;102337.09;5094251;28;20044;-67
2022/03/15 02:03:38;;;;;;;21.75;9.43;;;;;;;7.21;71.75;102330.13;5093358;28;20044;-67
2022/03/15 02:06:05;;;;;;;28.50;10.60;;;;;;;7.15;71.66;102325.22;5076220;28;20040;-67
2022/03/15 02:08:35;;;;;;;21.80;9.57;;;;;;;7.08;71.71;102330.03;5093942;28;20399;-67
2022/03/15 02:11:02;;;;;;;23.50;10.07;;;;;;;6.99;71.86;102336.69;5092909;28;20040;-67
2022/03/15 02:13:29;;;;;;;21.77;9.60;;;;;;;7.08;72.43;102336.16;5093061;28;20443;-67
2022/03/15 02:15:56;;;;;;;26.88;10.38;;;;;;;7.02;71.42;102330.38;5075819;28;20040;-67
2022/03/15 02:18:25;;;;;;;21.55;9.85;;;;;;;7.00;71.56;102327.81;5093143;28;20036;-67
2022/03/15 02:20:54;;;;;;;24.60;10.35;;;;;;;6.99;72.29;102322.66;5076296;28;20036;-67
2022/03/15 02:23:20;;;;;;;26.73;9.48;;;;;;;6.99;71.86;102322.66;5092752;28;20051;-67
2022/03/15 02:25:47;;;;;;;22.92;9.80;;;;;;;6.96;72.20;102321.03;5093516;28;20044;-67
2022/03/15 02:28:14;;;;;;;21.98;9.82;;;;;;;6.95;71.92;102314.09;5093834;28;20058;-67
2022/03/15 02:30:40;;;;;;;25.63;9.77;;;;;;;6.99;72.11;102312.94;5093762;28;20040;-67
2022/03/15 02:33:07;;;;;;;26.23;9.77;;;;;;;6.95;71.89;102303.53;5059537;28;20044;-67
2022/03/15 02:35:33;;;;;;;26.38;9.50;;;;;;;6.94;71.90;102308.91;5092447;28;20072;-67
2022/03/15 02:38:00;;;;;;;19.38;9.45;;;;;;;6.88;72.44;102307.47;5075014;28;20470;-67
2022/03/15 02:40:27;;;;;;;22.95;9.82;;;;;;;7.02;71.96;102307.50;5092708;28;20496;-67
2022/03/15 02:42:54;;;;;;;21.00;10.02;;;;;;;7.07;71.76;102302.75;5092405;28;20047;-67
2022/03/15 02:45:22;;;;;;;21.70;8.98;;;;;;;7.09;71.47;102295.63;5092059;28;20462;-67
2022/03/15 02:47:48;;;;;;;24.60;8.70;;;;;;;7.17;71.24;102295.16;5093569;28;20547;-67
2022/03/15 02:50:15;;;;;;;18.83;8.35;;;;;;;7.14;71.58;102289.22;5093762;28;20044;-67
2022/03/15 02:52:42;;;;;;;24.90;9.55;;;;;;;7.17;71.31;102281.09;5093347;28;20052;-67
2022/03/15 02:55:09;;;;;;;21.92;9.35;;;;;;;7.10;71.07;102278.84;5075305;28;20052;-67
2022/03/15 02:57:38;;;;;;;20.45;9.32;;;;;;;7.16;70.72;102279.41;5092267;28;20043;-67
2022/03/15 03:00:05;;;;;;;23.17;9.32;;;;;;;7.11;71.58;102271.75;5093335;28;20036;-67
2022/03/15 03:02:33;;;;;;;23.58;9.82;;;;;;;7.18;71.68;102273.09;5093114;28;20048;-67
2022/03/15 03:05:00;;;;;;;19.60;9.05;;;;;;;7.13;71.60;102279.59;5093108;28;20047;-67
2022/03/15 03:07:26;;;;;;;18.48;9.15;;;;;;;7.19;71.35;102279.22;5092798;28;20408;-67
2022/03/15 03:09:56;;;;;;;21.17;9.65;;;;;;;7.08;72.13;102277.25;5092086;28;20123;-68
2022/03/15 03:12:24;;;;;;;22.17;9.32;;;;;;;7.15;72.15;102272.41;5093030;28;20048;-67
2022/03/15 03:14:52;;;;;;;24.70;9.35;;;;;;;7.07;71.29;102267.63;5091878;28;20512;-67
2022/03/15 03:17:19;;;;;;;19.33;9.35;;;;;;;7.07;71.98;102264.97;5070905;28;20048;-67
2022/03/15 03:19:46;;;;;;;23.48;9.07;;;;;;;7.04;72.11;102265.16;5091549;28;20036;-67
2022/03/15 03:22:12;;;;;;;20.60;9.23;;;;;;;6.95;72.24;102261.31;5091513;28;20040;-67
2022/03/15 03:24:39;;;;;;;20.92;10.43;;;;;;;7.00;71.98;102264.50;5091722;28;20035;-67
2022/03/15 03:27:07;;;;;;;26.13;9.90;;;;;;;6.98;71.79;102262.91;5075218;28;20143;-67
2022/03/15 03:29:34;;;;;;;28.30;9.57;;;;;;;6.99;71.34;102256.69;5092806;28;20454;-67
2022/03/15 03:32:01;;;;;;;18.83;9.20;;;;;;;6.96;71.64;102260.34;5071996;28;20056;-67
2022/03/15 03:34:27;;;;;;;24.10;10.23;;;;;;;6.91;71.70;102257.16;5054905;28;20044;-68
2022/03/15 03:36:54;;;;;;;25.95;9.45;;;;;;;6.96;72.07;102263.00;5088631;28;20041;-67
2022/03/15 03:39:22;;;;;;;21.92;9.80;;;;;;;6.91;72.08;102257.16;5071464;28;20052;-67
2022/03/15 03:41:49;;;;;;;18.33;9.25;;;;;;;6.87;71.89;102258.28;5090847;28;20047;-67
2022/03/15 03:44:16;;;;;;;25.67;9.85;;;;;;;6.80;72.90;102257.78;5082587;28;20155;-67
2022/03/15 03:46:43;;;;;;;25.60;9.73;;;;;;;6.80;72.28;102260.44;5074370;28;20044;-67
2022/03/15 03:49:10;;;;;;;25.15;9.52;;;;;;;6.82;72.10;102260.34;5086649;28;20047;-67
2022/03/15 03:51:36;;;;;;;21.10;9.38;;;;;;;6.79;72.02;102261.38;5096931;28;20476;-67
2022/03/15 03:54:03;;;;;;;19.70;9.45;;;;;;;6.77;72.76;102263.28;5078414;28;20093;-67
2022/03/15 03:56:30;;;;;;;23.00;10.15;;;;;;;6.57;73.41;102264.47;5096798;28;20059;-67
2022/03/15 03:58:57;;;;;;;19.33;9.10;;;;;;;6.62;73.53;102257.13;5079097;28;20059;-67
2022/03/15 04:01:23;;;;;;;22.55;9.98;;;;;;;6.59;72.93;102254.66;5096490;28;20044;-66
2022/03/15 04:03:50;;;;;;;18.38;9.55;;;;;;;6.67;73.03;102247.13;5078891;28;20139;-66
2022/03/15 04:06:17;;;;;;;20.17;9.52;;;;;;;6.69;72.44;102245.28;5096286;28;20036;-66
2022/03/15 04:08:44;;;;;;;27.25;10.23;;;;;;;6.68;72.84;102250.63;5096455;28;20047;-66
2022/03/15 04:11:16;;;;;;;26.33;10.02;;;;;;;6.72;73.03;102260.06;5079501;28;20040;-66
2022/03/15 04:13:43;;;;;;;21.50;10.63;;;;;;;6.71;72.80;102258.34;5096445;28;20043;-66
2022/03/15 04:16:10;;;;;;;24.25;9.95;;;;;;;6.68;72.69;102259.38;5094846;28;20063;-67
2022/03/15 04:18:40;;;;;;;23.75;10.02;;;;;;;6.66;72.88;102255.16;5096415;28;20071;-66
2022/03/15 04:21:07;;;;;;;23.52;10.30;;;;;;;6.62;73.41;102259.78;5074895;28;20469;-66
2022/03/15 04:23:34;;;;;;;22.40;9.98;;;;;;;6.56;73.49;102256.63;5074571;28;20119;-66
2022/03/15 04:26:00;;;;;;;32.20;10.55;;;;;;;6.51;73.92;102256.91;5075515;28;20052;-66
2022/03/15 04:28:28;;;;;;;20.90;9.48;;;;;;;6.53;74.01;102255.00;5075563;28;20090;-66
2022/03/15 04:30:55;;;;;;;21.98;9.38;;;;;;;6.48;73.70;102254.47;5074637;28;20051;-66
2022/03/15 04:33:21;;;;;;;20.23;9.80;;;;;;;6.56;73.84;102254.00;5076045;28;20122;-66
2022/03/15 04:35:48;;;;;;;25.05;9.32;;;;;;;6.59;73.15;102249.41;5075673;28;20378;-66
2022/03/15 04:38:15;;;;;;;21.27;9.32;;;;;;;6.62;73.07;102241.31;5074209;28;20094;-66
2022/03/15 04:40:43;;;;;;;21.52;9.43;;;;;;;6.59;72.53;102236.22;5074707;28;20045;-66
2022/03/15 04:43:09;;;;;;;24.08;9.20;;;;;;;6.60;73.54;102235.25;5075491;28;20041;-66
2022/03/15 04:45:36;;;;;;;22.17;9.75;;;;;;;6.68;73.16;102238.28;5075426;28;20036;-66
2022/03/15 04:48:04;;;;;;;21.65;8.70;;;;;;;6.69;72.64;102240.00;5078683;28;20561;-66
2022/03/15 04:50:31;;;;;;;25.27;9.27;;;;;;;6.67;73.08;102239.22;5094501;28;20036;-66
2022/03/15 04:52:58;;;;;;;25.17;9.07;;;;;;;6.64;73.07;102236.78;5094987;28;20051;-66
2022/03/15 04:55:24;;;;;;;20.00;9.43;;;;;;;6.67;72.86;102236.59;5077582;28;20044;-66
2022/03/15 04:57:52;;;;;;;28.80;9.27;;;;;;;6.73;72.74;102236.22;5095156;28;20039;-66
2022/03/15 05:00:19;;;;;;;18.08;8.93;;;;;;;6.75;72.62;102232.63;5060914;28;20109;-68
2022/03/15 05:02:46;;;;;;;22.55;8.90;;;;;;;6.72;73.06;102225.78;5095564;28;20040;-66
2022/03/15 05:05:13;;;;;;;20.33;8.38;;;;;;;6.78;72.88;102220.13;5093817;28;20176;-66
2022/03/15 05:07:41;;;;;;;17.63;8.40;;;;;;;6.77;73.10;102222.84;5091139;28;20054;-66
2022/03/15 05:12:55;;;;;;;20.73;7.68;;;;;;;6.82;71.97;102212.88;5079956;28;20453;-66
2022/03/15 05:15:21;;;;;;;19.00;7.15;;;;;;;6.83;72.33;102210.13;5094775;28;20052;-67
2022/03/15 05:17:48;;;;;;;17.55;7.93;;;;;;;6.85;72.06;102210.03;5094880;28;20089;-67
2022/03/15 05:20:15;;;;;;;19.33;7.25;;;;;;;6.86;72.47;102207.31;5094929;28;20036;-67
2022/03/15 05:22:43;;;;;;;20.02;7.50;;;;;;;6.85;71.95;102204.78;5094521;28;20135;-67
2022/03/15 05:25:13;;;;;;;19.98;7.72;;;;;;;6.79;72.30;102206.00;5094815;28;20095;-67
2022/03/15 05:27:41;;;;;;;21.05;7.85;;;;;;;6.76;72.65;102203.53;5094517;28;20051;-67
2022/03/15 05:30:09;;;;;;;20.10;8.20;;;;;;;6.84;72.33;102209.22;5093695;28;20546;-67
2022/03/15 05:32:36;;;;;;;22.45;8.80;;;;;;;6.83;72.41;102209.28;5093721;28;20051;-67
2022/03/15 05:35:04;;;;;;;19.55;8.75;;;;;;;6.80;72.05;102199.75;5076714;28;20052;-66
2022/03/15 05:37:30;;;;;;;18.95;8.10;;;;;;;6.88;72.35;102202.78;5076857;28;20048;-67
2022/03/15 05:39:57;;;;;;;17.60;8.43;;;;;;;6.76;73.24;102205.34;5093540;28;20071;-67
2022/03/15 05:42:24;;;;;;;22.05;8.77;;;;;;;6.82;71.74;102197.91;5076347;28;20411;-66
2022/03/15 05:44:50;;;;;;;23.00;8.10;;;;;;;6.85;72.58;102202.13;5093502;28;20101;-66
2022/03/15 05:47:18;;;;;;;20.15;7.95;;;;;;;6.75;72.36;102193.94;5094521;28;20044;-67
2022/03/15 05:49:45;;;;;;;19.48;7.55;;;;;;;6.68;72.74;102195.25;5093680;28;20071;-67
2022/03/15 05:52:11;;;;;;;17.50;7.93;;;;;;;6.74;72.72;102192.22;5094837;28;20040;-67
2022/03/15 05:54:38;;;;;;;19.25;7.60;;;;;;;6.72;71.94;102196.75;5076663;28;20068;-67
2022/03/15 05:57:05;;;;;;;25.13;7.72;;;;;;;6.74;72.21;102184.31;5093715;28;20048;-67
2022/03/15 05:59:32;;;;;;;17.25;7.20;;;;;;;6.70;72.14;102194.22;5094442;28;20101;-66
2022/03/15 06:01:59;;;;;;;24.38;7.88;;;;;;;6.81;72.33;102184.81;5076052;28;20377;-67
2022/03/15 06:04:26;;;;;;;18.90;7.35;;;;;;;6.83;71.95;102194.31;5090946;28;20522;-67
2022/03/15 06:06:57;;;;;;;17.08;7.07;;;;;;;6.80;72.08;102189.22;5072392;28;20496;-67
2022/03/15 06:09:24;;;;;;;17.55;7.43;;;;;;;6.80;71.79;102178.66;5073245;28;20091;-67
2022/03/15 06:11:51;;;;;;;18.70;7.10;;;;;;;6.81;71.76;102188.28;5071755;28;20037;-66
2022/03/15 06:14:20;;;;;;;22.15;7.88;;;;;;;6.90;71.88;102184.22;5073499;28;20561;-66
2022/03/15 06:16:47;;;;;;;17.70;6.97;;;;;;;6.93;70.76;102178.78;5056008;28;20158;-66
2022/03/15 06:19:14;;;;;;;19.33;7.07;;;;;;;6.94;70.31;102176.97;5087906;28;20415;-66
2022/03/15 06:21:41;;;;;;;21.55;7.75;;;;;;;6.99;70.44;102182.81;5059372;28;20047;-67
2022/03/15 06:24:09;;;;;;;18.70;7.45;;;;;;;7.03;70.67;102181.69;5093390;28;20051;-67
2022/03/15 06:26:38;;;;;;;25.77;7.03;;;;;;;7.05;71.20;102177.16;5094065;28;20044;-67
2022/03/15 06:29:05;;;;;;;18.38;6.82;;;;;;;7.13;70.51;102180.19;5093394;28;20056;-67
2022/03/15 06:31:33;;;;;;;18.75;6.28;;;;;;;7.17;70.32;102172.88;5092193;28;20044;-67
2022/03/15 06:34:00;;;;;;;20.77;6.53;;;;;;;7.26;70.66;102174.97;5075436;28;20051;-67
2022/03/15 06:36:28;;;;;;;21.25;6.55;;;;;;;7.23;70.24;102167.22;5093777;28;20093;-67
2022/03/15 06:38:56;;;;;;;18.10;6.35;;;;;;;7.28;70.36;102165.16;5092846;28;20048;-67
2022/03/15 06:41:24;;;;;;;23.70;6.50;;;;;;;7.21;69.66;102164.69;5092288;28;20138;-67
2022/03/15 06:43:50;;;;;;;14.63;6.43;;;;;;;7.20;70.34;102173.53;5075408;28;20101;-67
2022/03/15 06:46:17;;;;;;;22.88;7.25;;;;;;;7.24;70.00;102163.63;5093222;28;20411;-67
2022/03/15 06:48:44;;;;;;;17.60;6.35;;;;;;;7.39;69.93;102169.75;5093090;28;20122;-67
2022/03/15 06:51:11;;;;;;;19.00;6.38;;;;;;;7.46;68.88;102173.69;5074940;28;20054;-67
2022/03/15 06:53:38;;;;;;;22.92;6.60;;;;;;;7.57;68.83;102170.38;5091598;28;20051;-67
2022/03/15 06:56:05;;;;;;;19.05;6.03;;;;;;;7.58;68.99;102167.59;5071265;28;20051;-67
2022/03/15 06:58:32;;;;;;;17.67;6.47;;;;;;;7.55;69.36;102170.47;5093026;28;20044;-67
2022/03/15 07:00:59;;;;;;;22.67;6.82;;;;;;;7.63;69.16;102167.31;5091701;28;20040;-67
2022/03/15 07:03:25;;;;;;;21.75;7.07;;;;;;;7.57;69.44;102155.34;5091896;28;20066;-67
2022/03/15 07:05:52;;;;;;;21.38;6.85;;;;;;;7.65;68.58;102152.22;5091596;28;20036;-67
2022/03/15 07:08:19;;;;;;;21.55;6.43;;;;;;;7.59;68.40;102161.38;5091919;28;20051;-67
2022/03/15 07:10:46;;;;;;;17.17;6.60;;;;;;;7.62;68.20;102155.91;5093211;28;20058;-67
2022/03/15 07:13:13;;;;;;;23.33;6.32;;;;;;;7.71;67.97;102154.44;5092806;28;20079;-68
2022/03/15 07:15:40;;;;;;;18.75;6.28;;;;;;;7.73;68.33;102156.97;5092680;28;20460;-67
2022/03/15 07:18:07;;;;;;;26.33;6.25;;;;;;;7.80;67.46;102153.81;5091704;28;20484;-67
2022/03/15 07:20:34;;;;;;;16.40;5.97;;;;;;;7.86;68.18;102147.31;5093082;28;20044;-67
2022/03/15 07:23:01;;;;;;;16.77;5.82;;;;;;;7.84;66.49;102147.41;5092286;28;20096;-67
2022/03/15 07:25:27;;;;;;;24.50;5.88;;;;;;;7.94;66.80;102152.09;5091467;28;20063;-67
2022/03/15 07:27:54;;;;;;;18.73;5.57;;;;;;;8.02;66.10;102147.97;5074311;28;20044;-67
2022/03/15 07:30:21;;;;;;;16.20;5.10;;;;;;;8.07;66.64;102150.28;5092708;28;20044;-68
2022/03/15 07:32:48;;;;;;;19.60;5.22;;;;;;;8.15;67.01;102155.06;5092656;28;20070;-67
2022/03/15 07:35:16;;;;;;;16.45;5.20;;;;;;;8.21;65.94;102139.63;5091563;28;20606;-67
2022/03/15 07:37:52;;;;;;;16.50;5.25;;;;;;;8.27;65.71;102141.03;5091444;28;20097;-67
2022/03/15 07:40:19;;;;;;;21.45;5.30;;;;;;;8.31;65.38;102144.31;5079544;28;20044;-67
2022/03/15 07:42:46;;;;;;;16.50;5.40;;;;;;;8.32;65.25;102133.63;5092520;28;20040;-67
2022/03/15 07:45:13;;;;;;;17.02;5.53;;;;;;;8.33;64.99;102135.31;5092753;28;20040;-67
2022/03/15 07:47:40;;;;;;;22.75;5.57;;;;;;;8.41;64.98;102133.00;5091166;28;20048;-67
2022/03/15 07:50:08;;;;;;;28.20;6.07;;;;;;;8.45;65.08;102123.06;5092530;28;20048;-67
2022/03/15 07:52:34;;;;;;;27.45;5.97;;;;;;;8.49;65.50;102113.97;5091286;28;20065;-67
2022/03/15 07:55:02;;;;;;;19.10;5.28;;;;;;;8.56;65.13;102117.88;5091162;28;20040;-67
2022/03/15 07:57:29;;;;;;;19.23;5.32;;;;;;;8.51;65.66;102113.88;5092419;28;20396;-67
2022/03/15 07:59:56;;;;;;;18.95;5.55;;;;;;;8.54;65.53;102113.66;5092597;28;20045;-67
2022/03/15 08:02:22;;;;;;;16.48;5.20;;;;;;;8.53;64.80;102107.53;5091587;28;20044;-67
2022/03/15 08:04:49;;;;;;;14.93;4.82;;;;;;;8.51;65.01;102114.69;5066069;28;20067;-67
2022/03/15 08:07:16;;;;;;;16.13;5.60;;;;;;;8.62;64.79;102108.66;5086252;28;20105;-67
2022/03/15 08:09:43;;;;;;;22.63;5.10;;;;;;;8.68;64.25;102100.31;5088938;28;20177;-67
2022/03/15 08:12:09;;;;;;;27.05;6.20;;;;;;;8.70;64.30;102106.34;5092001;28;20040;-67
2022/03/15 08:14:36;;;;;;;16.98;5.28;;;;;;;8.68;64.60;102110.03;5074942;28;20048;-67
2022/03/15 08:17:05;;;;;;;21.08;5.68;;;;;;;8.74;64.41;102104.31;5091540;28;20036;-67
2022/03/15 08:19:32;;;;;;;13.82;5.05;;;;;;;8.80;64.22;102104.75;5089891;28;20455;-67
2022/03/15 08:22:02;;;;;;;15.85;5.78;;;;;;;8.75;64.04;102111.28;5089954;28;20040;-67
2022/03/15 08:24:29;;;;;;;20.67;6.10;;;;;;;8.73;64.36;102107.91;5087992;28;20048;-67
2022/03/15 08:26:56;;;;;;;18.80;5.88;;;;;;;8.59;63.58;102104.44;5068046;28;20045;-67
2022/03/15 08:29:22;;;;;;;16.02;5.63;;;;;;;8.48;64.28;102101.72;5085959;28;20048;-67
2022/03/15 08:31:49;;;;;;;20.77;6.03;;;;;;;8.58;64.50;102097.44;5080189;28;20059;-67
2022/03/15 08:34:17;;;;;;;31.77;6.53;;;;;;;8.63;64.25;102097.97;5085404;28;20044;-65
2022/03/15 08:36:44;;;;;;;15.80;5.40;;;;;;;8.59;64.47;102101.81;5092769;28;20047;-65
2022/03/15 08:39:10;;;;;;;19.85;7.25;;;;;;;8.76;64.48;102100.59;5089449;28;20043;-68
2022/03/15 08:41:39;;;;;;;32.25;5.88;;;;;;;8.77;64.57;102098.81;5093376;28;20086;-67
2022/03/15 08:44:06;;;;;;;21.50;6.40;;;;;;;8.73;64.82;102095.53;5089292;28;20040;-68
2022/03/15 08:46:33;;;;;;;22.10;5.60;;;;;;;8.89;63.72;102089.97;5078421;28;20044;-67
2022/03/15 08:49:01;;;;;;;15.75;5.65;;;;;;;8.78;63.89;102090.75;5095080;28;20538;-67
2022/03/15 08:51:28;;;;;;;15.45;5.47;;;;;;;8.62;64.85;102088.38;5095186;28;20048;-67
2022/03/15 08:53:54;;;;;;;20.83;6.10;;;;;;;8.70;64.73;102085.19;5076984;28;20404;-67
2022/03/15 08:56:21;;;;;;;17.13;5.72;;;;;;;8.62;65.36;102090.16;5085810;28;20041;-67
2022/03/15 08:58:48;;;;;;;15.80;5.85;;;;;;;8.45;65.82;102091.34;5072187;28;20044;-68
2022/03/15 09:01:16;;;;;;;14.52;5.90;;;;;;;8.39;66.18;102084.66;5088650;28;20040;-68
2022/03/15 09:03:58;;;;;;;21.58;6.13;;;;;;;8.53;65.78;102090.78;5091355;28;20079;-68
2022/03/15 09:06:24;;;;;;;17.98;6.13;;;;;;;8.62;66.48;102096.31;5089072;28;20040;-68
2022/03/15 09:08:51;;;;;;;17.38;5.50;;;;;;;8.62;65.73;102087.50;5086874;28;20044;-66
2022/03/15 09:11:18;;;;;;;14.95;5.95;;;;;;;8.66;66.21;102089.00;5087908;28;20108;-66
2022/03/15 09:13:44;;;;;;;21.60;6.32;;;;;;;8.71;65.99;102083.38;5084843;28;20123;-66
2022/03/15 09:16:13;;;;;;;19.50;6.72;;;;;;;8.80;66.39;102083.56;5066243;28;20044;-68
2022/03/15 09:18:40;;;;;;;19.70;6.85;;;;;;;8.84;66.51;102076.22;5090126;28;20047;-69
2022/03/15 09:21:07;;;;;;;17.58;6.45;;;;;;;8.89;65.93;102070.63;5082944;28;20567;-66
2022/03/15 09:23:33;;;;;;;22.65;7.25;;;;;;;8.76;67.48;102063.56;5073674;28;20452;-68
2022/03/15 09:26:00;;;;;;;19.50;6.63;;;;;;;8.77;68.59;102067.91;5085932;28;20064;-67
2022/03/15 09:28:29;;;;;;;20.05;5.88;;;;;;;8.79;68.97;102052.75;5045765;28;20705;-67
2022/03/15 09:30:56;;;;;;;28.55;6.60;;;;;;;8.77;68.60;102054.69;5057628;28;20082;-67
2022/03/15 09:33:24;;;;;;;16.90;6.50;;;;;;;8.88;69.19;102051.25;5088357;28;20222;-68
2022/03/15 09:35:50;;;;;;;21.20;6.75;;;;;;;8.79;69.74;102042.19;5088856;28;20040;-67
2022/03/15 09:38:19;;;;;;;16.48;6.75;;;;;;;8.89;68.72;102050.28;5077706;28;20105;-67
2022/03/15 09:40:50;;;;;;;16.80;6.82;;;;;;;8.98;69.03;102049.63;5092830;28;20051;-67
2022/03/15 09:43:21;;;;;;;20.75;6.57;;;;;;;9.13;69.93;102044.16;5088973;28;20036;-67
2022/03/15 09:45:50;;;;;;;19.50;6.23;;;;;;;9.09;69.44;102038.25;5093385;28;20040;-67
2022/03/15 09:48:23;;;;;;;17.40;6.18;;;;;;;9.09;69.76;102040.91;5087160;28;20048;-68
2022/03/15 09:50:51;;;;;;;17.92;6.40;;;;;;;9.21;69.42;102037.34;5089036;28;20036;-67
2022/03/15 09:53:19;;;;;;;18.73;6.47;;;;;;;9.35;70.75;102032.81;5089204;28;20078;-68
2022/03/15 09:55:46;;;;;;;18.10;6.97;;;;;;;9.27;69.83;102029.91;5092990;28;20550;-67
2022/03/15 09:58:18;;;;;;;21.77;7.18;;;;;;;9.23;69.07;102029.28;5090238;28;20055;-67
2022/03/15 10:00:49;;;;;;;25.48;7.38;;;;;;;9.22;67.71;102031.13;5092192;28;20047;-67
2022/03/15 10:03:16;;;;;;;;;;;;;;;9.35;69.24;102027.53;5092786;28;20111;-67
2022/03/15 10:05:45;;;;;;;21.25;5.57;;;;;;;9.50;69.41;102039.63;5072310;28;20031;-67
2022/03/15 10:08:13;;;;;;;17.63;6.00;;;;;;;9.53;68.88;102034.13;5086298;28;20403;-67
2022/03/15 10:10:40;;;;;;;16.88;5.70;;;;;;;9.61;66.71;102033.53;5082409;28;20093;-67
2022/03/15 10:13:07;;;;;;;19.63;6.20;;;;;;;9.59;65.88;102036.28;5084857;28;20047;-67
2022/03/15 10:15:34;;;;;;;20.40;5.40;;;;;;;9.55;65.71;102034.84;5093113;28;20051;-66
2022/03/15 10:18:04;;;;;;;23.15;6.00;;;;;;;9.51;66.03;102025.41;5093207;28;20040;-68
2022/03/15 10:20:48;;;;;;;14.13;5.88;;;;;;;9.60;66.22;102022.09;5092898;28;20063;-68
2022/03/15 10:23:16;;;;;;;15.75;5.63;;;;;;;9.77;66.48;102017.31;5092211;28;20043;-68
2022/03/15 10:25:46;;;;;;;28.88;6.43;;;;;;;9.72;65.48;102020.31;5088498;28;20446;-68
2022/03/15 10:28:14;;;;;;;17.52;6.05;;;;;;;9.79;66.37;102015.38;5093355;28;20562;-68
2022/03/15 10:30:43;;;;;;;18.52;5.80;;;;;;;9.83;65.66;102014.19;5092315;28;20412;-69
2022/03/15 10:33:10;;;;;;;17.10;5.75;;;;;;;9.67;64.54;102009.19;5090811;28;20036;-68
2022/03/15 10:35:41;;;;;;;16.30;5.95;;;;;;;9.70;65.93;102013.44;5082218;28;20356;-68
2022/03/15 10:38:08;;;;;;;18.67;5.90;;;;;;;9.72;65.91;102015.00;5088367;28;20036;-68
2022/03/15 10:40:40;;;;;;;19.60;5.68;;;;;;;9.69;64.75;102014.41;5089105;28;20032;-68
2022/03/15 10:43:11;;;;;;;18.60;6.30;;;;;;;9.79;65.28;102013.56;5088159;28;20089;-68
2022/03/15 10:45:43;;;;;;;17.20;5.57;;;;;;;9.89;65.06;102016.34;5092434;28;20047;-69
2022/03/15 10:48:16;;;;;;;18.17;6.05;;;;;;;9.89;64.51;102011.03;5090911;28;20071;-68
2022/03/15 10:51:09;;;;;;;22.05;5.85;;;;;;;9.94;64.58;102008.06;5092813;28;20052;-68
2022/03/15 10:53:39;;;;;;;25.45;6.22;;;;;;;9.96;63.62;102006.97;5091311;28;20399;-68
2022/03/15 10:56:11;;;;;;;19.42;6.28;;;;;;;10.06;63.52;102009.75;5073321;28;20069;-68
2022/03/15 10:59:01;;;;;;;19.15;5.78;;;;;;;10.07;63.12;102013.25;5081065;28;20119;-68
2022/03/15 11:01:36;;;;;;;15.02;5.72;;;;;;;10.01;64.80;102000.47;5091778;28;20496;-68
2022/03/15 11:04:07;;;;;;;18.13;6.07;;;;;;;9.90;65.23;102001.31;5086490;28;20048;-68
2022/03/15 11:06:40;;;;;;;17.58;6.25;;;;;;;10.07;65.59;102000.81;5090747;28;20050;-68
2022/03/15 11:09:29;;;;;;;17.95;6.90;;;;;;;10.07;63.86;101997.34;5085069;28;20055;-68
2022/03/15 11:14:40;;;;;;;18.02;6.63;;;;;;;10.06;65.13;101990.34;5097247;27;20757;-68
2022/03/15 11:17:11;;;;;;;17.80;7.25;;;;;;;10.23;64.50;101989.03;5092928;28;20037;-68
2022/03/15 11:19:42;;;;;;;21.42;6.47;;;;;;;10.30;65.12;101985.75;5105039;28;20134;-67
2022/03/15 11:22:11;;;;;;;;;;;;;;;10.25;64.43;101981.78;5086527;28;20131;-68
2022/03/15 11:24:43;;;;;;;14.95;6.68;;;;;;;10.32;64.73;101986.50;5097106;28;19993;-68
2022/03/15 11:27:12;;;;;;;;;;;;;;;10.28;64.47;101982.38;5087860;28;20044;-68
2022/03/15 11:29:40;;;;;;;20.90;6.65;;;;;;;10.19;65.19;101976.00;5073468;28;19924;-68
2022/03/15 11:32:07;;;;;;;17.25;6.70;;;;;;;10.37;65.71;101976.38;5092827;28;20054;-68